sensor_id;sensor_type;location;lat;lon;timestamp;temperature;humidity
65573;SHT30;52214;50.940;13.996;2023-02-22T00:00:12;5.64;91.45
65573;SHT30;52214;50.940;13.996;2023-02-22T00:02:50;5.62;91.44
65573;SHT30;52214;50.940;13.996;2023-02-22T00:07:49;5.62;91.38
65573;SHT30;52214;50.940;13.996;2023-02-22T00:10:18;5.60;91.44
65573;SHT30;52214;50.940;13.996;2023-02-22T00:12:46;5.59;91.51
65573;SHT30;52214;50.940;13.996;2023-02-22T00:15:15;5.56;91.47
65573;SHT30;52214;50.940;13.996;2023-02-22T00:17:42;5.56;91.43
65573;SHT30;52214;50.940;13.996;2023-02-22T00:20:09;5.57;91.34
65573;SHT30;52214;50.940;13.996;2023-02-22T00:22:40;5.56;91.33
65573;SHT30;52214;50.940;13.996;2023-02-22T00:25:08;5.53;91.31
65573;SHT30;52214;50.940;13.996;2023-02-22T00:27:33;5.55;91.25
65573;SHT30;52214;50.940;13.996;2023-02-22T00:29:59;5.52;91.25
65573;SHT30;52214;50.940;13.996;2023-02-22T00:32:25;5.53;91.28
65573;SHT30;52214;50.940;13.996;2023-02-22T00:34:52;5.50;91.33
65573;SHT30;52214;50.940;13.996;2023-02-22T00:37:19;5.49;91.33
65573;SHT30;52214;50.940;13.996;2023-02-22T00:39:47;5.47;91.25
65573;SHT30;52214;50.940;13.996;2023-02-22T00:42:14;5.47;91.31
65573;SHT30;52214;50.940;13.996;2023-02-22T00:44:40;5.45;91.42
65573;SHT30;52214;50.940;13.996;2023-02-22T00:47:06;5.43;91.38
65573;SHT30;52214;50.940;13.996;2023-02-22T00:49:33;5.46;91.36
65573;SHT30;52214;50.940;13.996;2023-02-22T00:51:59;5.43;91.29
65573;SHT30;52214;50.940;13.996;2023-02-22T00:54:25;5.42;91.26
65573;SHT30;52214;50.940;13.996;2023-02-22T00:56:51;5.43;91.29
65573;SHT30;52214;50.940;13.996;2023-02-22T00:59:17;5.43;91.20
65573;SHT30;52214;50.940;13.996;2023-02-22T01:01:42;5.40;91.13
65573;SHT30;52214;50.940;13.996;2023-02-22T01:04:11;5.40;91.08
65573;SHT30;52214;50.940;13.996;2023-02-22T01:06:37;5.38;91.00
65573;SHT30;52214;50.940;13.996;2023-02-22T01:09:04;5.39;90.96
65573;SHT30;52214;50.940;13.996;2023-02-22T01:11:32;5.38;90.88
65573;SHT30;52214;50.940;13.996;2023-02-22T01:13:58;5.36;90.80
65573;SHT30;52214;50.940;13.996;2023-02-22T01:16:24;5.36;90.81
65573;SHT30;52214;50.940;13.996;2023-02-22T01:18:50;5.35;90.80
65573;SHT30;52214;50.940;13.996;2023-02-22T01:21:16;5.36;90.78
65573;SHT30;52214;50.940;13.996;2023-02-22T01:23:44;5.36;90.77
65573;SHT30;52214;50.940;13.996;2023-02-22T01:26:10;5.32;90.73
65573;SHT30;52214;50.940;13.996;2023-02-22T01:28:36;5.34;90.71
65573;SHT30;52214;50.940;13.996;2023-02-22T01:31:02;5.32;90.64
65573;SHT30;52214;50.940;13.996;2023-02-22T01:33:28;5.34;90.58
65573;SHT30;52214;50.940;13.996;2023-02-22T01:35:54;5.29;90.56
65573;SHT30;52214;50.940;13.996;2023-02-22T01:38:20;5.27;90.56
65573;SHT30;52214;50.940;13.996;2023-02-22T01:40:48;5.25;90.65
65573;SHT30;52214;50.940;13.996;2023-02-22T01:43:20;5.29;90.67
65573;SHT30;52214;50.940;13.996;2023-02-22T01:45:53;5.27;90.71
65573;SHT30;52214;50.940;13.996;2023-02-22T01:48:26;5.24;90.72
65573;SHT30;52214;50.940;13.996;2023-02-22T01:50:57;5.24;90.80
65573;SHT30;52214;50.940;13.996;2023-02-22T01:53:30;5.21;90.89
65573;SHT30;52214;50.940;13.996;2023-02-22T01:55:58;5.21;90.85
65573;SHT30;52214;50.940;13.996;2023-02-22T01:58:27;5.21;90.91
65573;SHT30;52214;50.940;13.996;2023-02-22T02:00:54;5.21;90.87
65573;SHT30;52214;50.940;13.996;2023-02-22T02:03:24;5.18;90.94
65573;SHT30;52214;50.940;13.996;2023-02-22T02:05:53;5.18;91.00
65573;SHT30;52214;50.940;13.996;2023-02-22T02:08:51;5.18;90.96
65573;SHT30;52214;50.940;13.996;2023-02-22T02:11:22;5.18;91.02
65573;SHT30;52214;50.940;13.996;2023-02-22T02:13:52;5.17;91.02
65573;SHT30;52214;50.940;13.996;2023-02-22T02:16:22;5.15;90.99
65573;SHT30;52214;50.940;13.996;2023-02-22T02:18:50;5.12;90.94
65573;SHT30;52214;50.940;13.996;2023-02-22T02:32:56;5.11;90.61
65573;SHT30;52214;50.940;13.996;2023-02-22T02:35:36;5.12;90.60
65573;SHT30;52214;50.940;13.996;2023-02-22T02:38:29;5.09;90.50
65573;SHT30;52214;50.940;13.996;2023-02-22T02:41:04;5.09;90.42
65573;SHT30;52214;50.940;13.996;2023-02-22T02:43:40;5.07;90.35
65573;SHT30;52214;50.940;13.996;2023-02-22T02:46:14;5.07;90.30
65573;SHT30;52214;50.940;13.996;2023-02-22T02:48:46;5.08;90.28
65573;SHT30;52214;50.940;13.996;2023-02-22T02:51:15;5.05;90.25
65573;SHT30;52214;50.940;13.996;2023-02-22T02:53:45;5.05;90.24
65573;SHT30;52214;50.940;13.996;2023-02-22T02:56:11;5.02;90.26
65573;SHT30;52214;50.940;13.996;2023-02-22T02:58:48;5.04;90.22
65573;SHT30;52214;50.940;13.996;2023-02-22T03:21:06;4.91;90.06
65573;SHT30;52214;50.940;13.996;2023-02-22T03:23:46;4.92;90.01
65573;SHT30;52214;50.940;13.996;2023-02-22T03:26:23;4.91;89.99
65573;SHT30;52214;50.940;13.996;2023-02-22T03:28:52;4.91;89.99
65573;SHT30;52214;50.940;13.996;2023-02-22T03:31:31;4.91;89.93
65573;SHT30;52214;50.940;13.996;2023-02-22T03:34:14;4.90;89.88
65573;SHT30;52214;50.940;13.996;2023-02-22T03:36:47;4.90;89.79
65573;SHT30;52214;50.940;13.996;2023-02-22T03:39:15;4.88;89.75
65573;SHT30;52214;50.940;13.996;2023-02-22T03:41:47;4.84;89.71
65573;SHT30;52214;50.940;13.996;2023-02-22T03:44:16;4.84;89.66
65573;SHT30;52214;50.940;13.996;2023-02-22T03:46:44;4.84;89.60
65573;SHT30;52214;50.940;13.996;2023-02-22T03:49:35;4.84;89.52
65573;SHT30;52214;50.940;13.996;2023-02-22T03:52:03;4.84;89.53
65573;SHT30;52214;50.940;13.996;2023-02-22T03:54:30;4.81;89.51
65573;SHT30;52214;50.940;13.996;2023-02-22T03:57:05;4.81;89.50
65573;SHT30;52214;50.940;13.996;2023-02-22T03:59:33;4.80;89.47
65573;SHT30;52214;50.940;13.996;2023-02-22T04:01:58;4.79;89.45
65573;SHT30;52214;50.940;13.996;2023-02-22T04:04:24;4.79;89.36
65573;SHT30;52214;50.940;13.996;2023-02-22T04:06:50;4.79;89.30
65573;SHT30;52214;50.940;13.996;2023-02-22T04:09:17;4.77;89.29
65573;SHT30;52214;50.940;13.996;2023-02-22T04:11:43;4.76;89.28
65573;SHT30;52214;50.940;13.996;2023-02-22T04:14:09;4.74;89.31
65573;SHT30;52214;50.940;13.996;2023-02-22T04:16:35;4.74;89.35
65573;SHT30;52214;50.940;13.996;2023-02-22T04:19:01;4.73;89.33
65573;SHT30;52214;50.940;13.996;2023-02-22T04:21:26;4.72;89.35
65573;SHT30;52214;50.940;13.996;2023-02-22T04:23:52;4.72;89.41
65573;SHT30;52214;50.940;13.996;2023-02-22T04:26:18;4.70;89.50
65573;SHT30;52214;50.940;13.996;2023-02-22T04:28:43;4.70;89.49
65573;SHT30;52214;50.940;13.996;2023-02-22T04:31:09;4.70;89.56
65573;SHT30;52214;50.940;13.996;2023-02-22T04:33:35;4.67;89.55
65573;SHT30;52214;50.940;13.996;2023-02-22T04:36:00;4.67;89.54
65573;SHT30;52214;50.940;13.996;2023-02-22T04:38:26;4.66;89.63
65573;SHT30;52214;50.940;13.996;2023-02-22T04:40:53;4.66;89.61
65573;SHT30;52214;50.940;13.996;2023-02-22T04:43:20;4.64;89.64
65573;SHT30;52214;50.940;13.996;2023-02-22T04:45:46;4.63;89.64
65573;SHT30;52214;50.940;13.996;2023-02-22T04:48:11;4.62;89.67
65573;SHT30;52214;50.940;13.996;2023-02-22T04:50:37;4.64;89.67
65573;SHT30;52214;50.940;13.996;2023-02-22T04:53:03;4.60;89.66
65573;SHT30;52214;50.940;13.996;2023-02-22T04:55:29;4.62;89.63
65573;SHT30;52214;50.940;13.996;2023-02-22T04:57:55;4.62;89.65
65573;SHT30;52214;50.940;13.996;2023-02-22T05:00:22;4.60;89.57
65573;SHT30;52214;50.940;13.996;2023-02-22T05:02:49;4.60;89.57
65573;SHT30;52214;50.940;13.996;2023-02-22T05:05:18;4.57;89.61
65573;SHT30;52214;50.940;13.996;2023-02-22T05:07:46;4.55;89.70
65573;SHT30;52214;50.940;13.996;2023-02-22T05:10:13;4.56;89.61
65573;SHT30;52214;50.940;13.996;2023-02-22T05:12:39;4.55;89.60
65573;SHT30;52214;50.940;13.996;2023-02-22T05:15:06;4.55;89.60
65573;SHT30;52214;50.940;13.996;2023-02-22T05:17:33;4.53;89.62
65573;SHT30;52214;50.940;13.996;2023-02-22T05:20:00;4.52;89.61
65573;SHT30;52214;50.940;13.996;2023-02-22T05:22:26;4.50;89.63
65573;SHT30;52214;50.940;13.996;2023-02-22T05:24:51;4.49;89.68
65573;SHT30;52214;50.940;13.996;2023-02-22T05:27:18;4.50;89.73
65573;SHT30;52214;50.940;13.996;2023-02-22T05:29:44;4.52;89.76
65573;SHT30;52214;50.940;13.996;2023-02-22T05:32:09;4.49;89.77
65573;SHT30;52214;50.940;13.996;2023-02-22T05:34:37;4.45;89.91
65573;SHT30;52214;50.940;13.996;2023-02-22T05:37:03;4.45;89.93
65573;SHT30;52214;50.940;13.996;2023-02-22T05:39:30;4.45;89.98
65573;SHT30;52214;50.940;13.996;2023-02-22T05:41:58;4.46;90.04
65573;SHT30;52214;50.940;13.996;2023-02-22T05:44:24;4.42;90.12
65573;SHT30;52214;50.940;13.996;2023-02-22T05:46:50;4.44;90.10
65573;SHT30;52214;50.940;13.996;2023-02-22T05:49:16;4.42;90.10
65573;SHT30;52214;50.940;13.996;2023-02-22T05:51:42;4.41;90.14
65573;SHT30;52214;50.940;13.996;2023-02-22T05:54:08;4.44;90.15
65573;SHT30;52214;50.940;13.996;2023-02-22T05:56:34;4.41;90.12
65573;SHT30;52214;50.940;13.996;2023-02-22T05:59:01;4.39;90.14
65573;SHT30;52214;50.940;13.996;2023-02-22T06:01:26;4.38;90.15
65573;SHT30;52214;50.940;13.996;2023-02-22T06:03:53;4.36;90.19
65573;SHT30;52214;50.940;13.996;2023-02-22T06:06:18;4.35;90.19
65573;SHT30;52214;50.940;13.996;2023-02-22T06:08:45;4.38;90.16
65573;SHT30;52214;50.940;13.996;2023-02-22T06:11:10;4.36;90.17
65573;SHT30;52214;50.940;13.996;2023-02-22T06:13:37;4.32;90.18
65573;SHT30;52214;50.940;13.996;2023-02-22T06:16:03;4.34;90.14
65573;SHT30;52214;50.940;13.996;2023-02-22T06:18:29;4.32;90.18
65573;SHT30;52214;50.940;13.996;2023-02-22T06:20:57;4.32;90.16
65573;SHT30;52214;50.940;13.996;2023-02-22T06:23:23;4.34;90.17
65573;SHT30;52214;50.940;13.996;2023-02-22T06:25:50;4.31;90.15
65573;SHT30;52214;50.940;13.996;2023-02-22T06:28:15;4.25;90.24
65573;SHT30;52214;50.940;13.996;2023-02-22T06:30:41;4.27;90.23
65573;SHT30;52214;50.940;13.996;2023-02-22T06:33:08;4.25;90.13
65573;SHT30;52214;50.940;13.996;2023-02-22T06:35:34;4.29;90.17
65573;SHT30;52214;50.940;13.996;2023-02-22T06:37:59;4.28;90.12
65573;SHT30;52214;50.940;13.996;2023-02-22T06:40:25;4.28;90.13
65573;SHT30;52214;50.940;13.996;2023-02-22T06:42:54;4.25;90.11
65573;SHT30;52214;50.940;13.996;2023-02-22T06:45:20;4.27;90.16
65573;SHT30;52214;50.940;13.996;2023-02-22T06:47:46;4.25;90.18
65573;SHT30;52214;50.940;13.996;2023-02-22T06:50:20;4.27;90.20
65573;SHT30;52214;50.940;13.996;2023-02-22T06:52:46;4.27;90.22
65573;SHT30;52214;50.940;13.996;2023-02-22T06:55:17;4.25;90.23
65573;SHT30;52214;50.940;13.996;2023-02-22T06:57:43;4.24;90.28
65573;SHT30;52214;50.940;13.996;2023-02-22T07:00:09;4.25;90.31
65573;SHT30;52214;50.940;13.996;2023-02-22T07:02:35;4.22;90.34
65573;SHT30;52214;50.940;13.996;2023-02-22T07:05:01;4.19;90.36
65573;SHT30;52214;50.940;13.996;2023-02-22T07:07:27;4.19;90.40
65573;SHT30;52214;50.940;13.996;2023-02-22T07:09:54;4.18;90.39
65573;SHT30;52214;50.940;13.996;2023-02-22T07:12:20;4.19;90.39
65573;SHT30;52214;50.940;13.996;2023-02-22T07:14:45;4.19;90.43
65573;SHT30;52214;50.940;13.996;2023-02-22T07:17:11;4.19;90.44
65573;SHT30;52214;50.940;13.996;2023-02-22T07:19:36;4.17;90.48
65573;SHT30;52214;50.940;13.996;2023-02-22T07:22:02;4.17;90.49
65573;SHT30;52214;50.940;13.996;2023-02-22T07:24:28;4.17;90.52
65573;SHT30;52214;50.940;13.996;2023-02-22T07:26:53;4.17;90.44
65573;SHT30;52214;50.940;13.996;2023-02-22T07:29:19;4.17;90.45
65573;SHT30;52214;50.940;13.996;2023-02-22T07:31:47;4.14;90.44
65573;SHT30;52214;50.940;13.996;2023-02-22T07:34:12;4.14;90.41
65573;SHT30;52214;50.940;13.996;2023-02-22T07:36:38;4.11;90.46
65573;SHT30;52214;50.940;13.996;2023-02-22T07:39:04;4.14;90.46
65573;SHT30;52214;50.940;13.996;2023-02-22T07:41:33;4.12;90.47
65573;SHT30;52214;50.940;13.996;2023-02-22T07:43:59;4.09;90.58
65573;SHT30;52214;50.940;13.996;2023-02-22T07:46:24;4.15;90.61
65573;SHT30;52214;50.940;13.996;2023-02-22T07:48:50;4.11;90.62
65573;SHT30;52214;50.940;13.996;2023-02-22T07:51:16;4.11;90.73
65573;SHT30;52214;50.940;13.996;2023-02-22T07:53:45;4.11;90.71
65573;SHT30;52214;50.940;13.996;2023-02-22T07:56:11;4.11;90.76
65573;SHT30;52214;50.940;13.996;2023-02-22T07:58:36;4.11;90.79
65573;SHT30;52214;50.940;13.996;2023-02-22T08:01:02;4.15;90.85
65573;SHT30;52214;50.940;13.996;2023-02-22T08:03:30;4.14;90.90
65573;SHT30;52214;50.940;13.996;2023-02-22T08:05:56;4.12;90.97
65573;SHT30;52214;50.940;13.996;2023-02-22T08:08:25;4.12;91.05
65573;SHT30;52214;50.940;13.996;2023-02-22T08:10:52;4.15;91.06
65573;SHT30;52214;50.940;13.996;2023-02-22T08:13:22;4.14;91.07
65573;SHT30;52214;50.940;13.996;2023-02-22T08:15:51;4.14;91.10
65573;SHT30;52214;50.940;13.996;2023-02-22T08:18:18;4.11;91.16
65573;SHT30;52214;50.940;13.996;2023-02-22T08:20:46;4.14;91.19
65573;SHT30;52214;50.940;13.996;2023-02-22T08:23:14;4.14;91.24
65573;SHT30;52214;50.940;13.996;2023-02-22T08:25:40;4.15;91.26
65573;SHT30;52214;50.940;13.996;2023-02-22T08:28:09;4.15;91.29
65573;SHT30;52214;50.940;13.996;2023-02-22T08:30:37;4.17;91.36
65573;SHT30;52214;50.940;13.996;2023-02-22T08:33:03;4.18;91.40
65573;SHT30;52214;50.940;13.996;2023-02-22T08:35:31;4.17;91.49
65573;SHT30;52214;50.940;13.996;2023-02-22T08:38:00;4.18;91.62
65573;SHT30;52214;50.940;13.996;2023-02-22T08:40:28;4.17;91.66
65573;SHT30;52214;50.940;13.996;2023-02-22T08:42:56;4.17;91.67
65573;SHT30;52214;50.940;13.996;2023-02-22T08:45:22;4.18;91.73
65573;SHT30;52214;50.940;13.996;2023-02-22T08:47:48;4.19;91.76
65573;SHT30;52214;50.940;13.996;2023-02-22T08:50:18;4.19;91.80
65573;SHT30;52214;50.940;13.996;2023-02-22T08:52:44;4.18;91.91
65573;SHT30;52214;50.940;13.996;2023-02-22T08:55:10;4.19;92.04
65573;SHT30;52214;50.940;13.996;2023-02-22T08:57:35;4.19;92.17
65573;SHT30;52214;50.940;13.996;2023-02-22T09:00:03;4.19;92.16
65573;SHT30;52214;50.940;13.996;2023-02-22T09:02:29;4.21;92.27
65573;SHT30;52214;50.940;13.996;2023-02-22T09:04:54;4.21;92.41
65573;SHT30;52214;50.940;13.996;2023-02-22T09:07:20;4.21;92.41
65573;SHT30;52214;50.940;13.996;2023-02-22T09:09:46;4.19;92.49
65573;SHT30;52214;50.940;13.996;2023-02-22T09:12:11;4.21;92.63
65573;SHT30;52214;50.940;13.996;2023-02-22T09:14:37;4.21;92.74
65573;SHT30;52214;50.940;13.996;2023-02-22T09:17:03;4.24;92.68
65573;SHT30;52214;50.940;13.996;2023-02-22T09:19:28;4.21;92.66
65573;SHT30;52214;50.940;13.996;2023-02-22T09:21:56;4.24;92.72
65573;SHT30;52214;50.940;13.996;2023-02-22T09:24:22;4.24;92.84
65573;SHT30;52214;50.940;13.996;2023-02-22T09:26:49;4.27;92.96
65573;SHT30;52214;50.940;13.996;2023-02-22T09:29:20;4.25;93.00
65573;SHT30;52214;50.940;13.996;2023-02-22T09:31:49;4.25;93.11
65573;SHT30;52214;50.940;13.996;2023-02-22T09:34:16;4.28;93.20
65573;SHT30;52214;50.940;13.996;2023-02-22T09:36:45;4.28;93.24
65573;SHT30;52214;50.940;13.996;2023-02-22T09:39:11;4.28;93.39
65573;SHT30;52214;50.940;13.996;2023-02-22T09:42:02;4.29;93.43
65573;SHT30;52214;50.940;13.996;2023-02-22T09:47:00;4.27;93.51
65573;SHT30;52214;50.940;13.996;2023-02-22T09:49:57;4.29;93.58
65573;SHT30;52214;50.940;13.996;2023-02-22T09:52:31;4.31;93.56
65573;SHT30;52214;50.940;13.996;2023-02-22T09:55:16;4.31;93.67
65573;SHT30;52214;50.940;13.996;2023-02-22T09:57:49;4.32;93.70
65573;SHT30;52214;50.940;13.996;2023-02-22T10:00:21;4.32;93.74
65573;SHT30;52214;50.940;13.996;2023-02-22T10:03:16;4.34;93.80
65573;SHT30;52214;50.940;13.996;2023-02-22T10:06:13;4.34;93.71
65573;SHT30;52214;50.940;13.996;2023-02-22T10:08:41;4.35;93.77
65573;SHT30;52214;50.940;13.996;2023-02-22T10:11:34;4.39;93.78
65573;SHT30;52214;50.940;13.996;2023-02-22T10:14:33;4.39;93.78
65573;SHT30;52214;50.940;13.996;2023-02-22T10:22:37;4.39;93.97
65573;SHT30;52214;50.940;13.996;2023-02-22T10:25:13;4.38;93.96
65573;SHT30;52214;50.940;13.996;2023-02-22T10:33:08;4.42;93.87
65573;SHT30;52214;50.940;13.996;2023-02-22T10:35:37;4.42;93.96
65573;SHT30;52214;50.940;13.996;2023-02-22T10:38:15;4.45;93.94
65573;SHT30;52214;50.940;13.996;2023-02-22T10:40:46;4.45;94.00
65573;SHT30;52214;50.940;13.996;2023-02-22T10:43:12;4.46;93.92
65573;SHT30;52214;50.940;13.996;2023-02-22T10:45:38;4.45;94.06
65573;SHT30;52214;50.940;13.996;2023-02-22T10:48:08;4.45;94.07
65573;SHT30;52214;50.940;13.996;2023-02-22T10:50:39;4.48;94.18
65573;SHT30;52214;50.940;13.996;2023-02-22T10:53:09;4.48;94.23
65573;SHT30;52214;50.940;13.996;2023-02-22T10:56:04;4.46;94.25
65573;SHT30;52214;50.940;13.996;2023-02-22T10:58:40;4.48;94.26
65573;SHT30;52214;50.940;13.996;2023-02-22T11:01:35;4.49;94.34
65573;SHT30;52214;50.940;13.996;2023-02-22T11:06:36;4.48;94.31
65573;SHT30;52214;50.940;13.996;2023-02-22T11:09:23;4.50;94.29
65573;SHT30;52214;50.940;13.996;2023-02-22T11:12:08;4.50;94.23
65573;SHT30;52214;50.940;13.996;2023-02-22T11:14:34;4.52;94.22
65573;SHT30;52214;50.940;13.996;2023-02-22T11:17:00;4.55;94.24
65573;SHT30;52214;50.940;13.996;2023-02-22T11:19:31;4.52;94.26
65573;SHT30;52214;50.940;13.996;2023-02-22T11:22:09;4.55;94.30
65573;SHT30;52214;50.940;13.996;2023-02-22T11:24:45;4.55;94.32
65573;SHT30;52214;50.940;13.996;2023-02-22T11:27:26;4.56;94.30
65573;SHT30;52214;50.940;13.996;2023-02-22T11:29:56;4.56;94.44
65573;SHT30;52214;50.940;13.996;2023-02-22T11:32:30;4.57;94.32
65573;SHT30;52214;50.940;13.996;2023-02-22T11:40:36;4.59;94.41
65573;SHT30;52214;50.940;13.996;2023-02-22T11:43:19;4.60;94.43
65573;SHT30;52214;50.940;13.996;2023-02-22T11:46:08;4.62;94.43
65573;SHT30;52214;50.940;13.996;2023-02-22T11:51:05;4.67;94.37
65573;SHT30;52214;50.940;13.996;2023-02-22T11:53:52;4.67;94.29
65573;SHT30;52214;50.940;13.996;2023-02-22T11:56:39;4.64;94.36
65573;SHT30;52214;50.940;13.996;2023-02-22T12:07:40;4.67;94.43
65573;SHT30;52214;50.940;13.996;2023-02-22T12:19:07;4.70;94.44
65573;SHT30;52214;50.940;13.996;2023-02-22T12:21:38;4.67;94.44
65573;SHT30;52214;50.940;13.996;2023-02-22T12:24:09;4.73;94.23
65573;SHT30;52214;50.940;13.996;2023-02-22T12:26:41;4.73;93.96
65573;SHT30;52214;50.940;13.996;2023-02-22T12:29:31;4.72;93.77
65573;SHT30;52214;50.940;13.996;2023-02-22T12:34:32;4.73;94.07
65573;SHT30;52214;50.940;13.996;2023-02-22T12:37:22;4.74;93.95
65573;SHT30;52214;50.940;13.996;2023-02-22T12:42:48;4.74;93.78
65573;SHT30;52214;50.940;13.996;2023-02-22T12:53:25;4.74;93.46
65573;SHT30;52214;50.940;13.996;2023-02-22T12:55:59;4.76;93.44
65573;SHT30;52214;50.940;13.996;2023-02-22T12:58:36;4.79;93.37
65573;SHT30;52214;50.940;13.996;2023-02-22T13:01:13;4.77;93.33
65573;SHT30;52214;50.940;13.996;2023-02-22T13:03:42;4.76;93.29
65573;SHT30;52214;50.940;13.996;2023-02-22T13:16:51;4.83;93.04
65573;SHT30;52214;50.940;13.996;2023-02-22T13:19:48;4.83;92.99
65573;SHT30;52214;50.940;13.996;2023-02-22T13:22:25;4.81;92.94
65573;SHT30;52214;50.940;13.996;2023-02-22T13:25:05;4.85;92.94
65573;SHT30;52214;50.940;13.996;2023-02-22T13:27:42;4.84;92.92
65573;SHT30;52214;50.940;13.996;2023-02-22T13:30:51;4.85;92.88
65573;SHT30;52214;50.940;13.996;2023-02-22T13:36:06;4.85;92.83
65573;SHT30;52214;50.940;13.996;2023-02-22T13:39:04;4.88;92.79
65573;SHT30;52214;50.940;13.996;2023-02-22T13:44:19;4.92;92.74
65573;SHT30;52214;50.940;13.996;2023-02-22T13:47:13;4.92;92.65
65573;SHT30;52214;50.940;13.996;2023-02-22T13:50:05;4.94;92.65
65573;SHT30;52214;50.940;13.996;2023-02-22T13:52:37;4.97;92.59
65573;SHT30;52214;50.940;13.996;2023-02-22T13:55:10;4.98;92.54
65573;SHT30;52214;50.940;13.996;2023-02-22T13:57:42;4.98;92.49
65573;SHT30;52214;50.940;13.996;2023-02-22T14:03:01;5.04;92.33
65573;SHT30;52214;50.940;13.996;2023-02-22T14:08:06;5.05;92.23
65573;SHT30;52214;50.940;13.996;2023-02-22T14:10:38;5.07;92.23
65573;SHT30;52214;50.940;13.996;2023-02-22T14:13:11;5.11;92.12
65573;SHT30;52214;50.940;13.996;2023-02-22T14:21:06;5.18;91.99
65573;SHT30;52214;50.940;13.996;2023-02-22T14:23:50;5.22;91.99
65573;SHT30;52214;50.940;13.996;2023-02-22T14:26:34;5.24;91.92
65573;SHT30;52214;50.940;13.996;2023-02-22T14:29:13;5.22;91.86
65573;SHT30;52214;50.940;13.996;2023-02-22T14:31:57;5.27;91.85
65573;SHT30;52214;50.940;13.996;2023-02-22T14:34:45;5.28;91.79
65573;SHT30;52214;50.940;13.996;2023-02-22T14:37:16;5.29;91.74
65573;SHT30;52214;50.940;13.996;2023-02-22T14:42:29;5.29;91.72
65573;SHT30;52214;50.940;13.996;2023-02-22T14:45:04;5.29;91.73
65573;SHT30;52214;50.940;13.996;2023-02-22T14:47:42;5.34;91.70
65573;SHT30;52214;50.940;13.996;2023-02-22T14:50:20;5.35;91.69
65573;SHT30;52214;50.940;13.996;2023-02-22T14:52:59;5.36;91.70
65573;SHT30;52214;50.940;13.996;2023-02-22T14:55:26;5.38;91.63
65573;SHT30;52214;50.940;13.996;2023-02-22T14:57:59;5.38;91.59
65573;SHT30;52214;50.940;13.996;2023-02-22T15:00:39;5.38;91.64
65573;SHT30;52214;50.940;13.996;2023-02-22T15:05:43;5.43;91.65
65573;SHT30;52214;50.940;13.996;2023-02-22T15:08:14;5.39;91.66
65573;SHT30;52214;50.940;13.996;2023-02-22T15:10:44;5.39;91.70
65573;SHT30;52214;50.940;13.996;2023-02-22T15:13:18;5.39;91.69
65573;SHT30;52214;50.940;13.996;2023-02-22T15:15:47;5.39;91.75
65573;SHT30;52214;50.940;13.996;2023-02-22T15:20:44;5.36;91.80
65573;SHT30;52214;50.940;13.996;2023-02-22T15:23:14;5.36;91.85
65573;SHT30;52214;50.940;13.996;2023-02-22T15:25:46;5.36;91.85
65573;SHT30;52214;50.940;13.996;2023-02-22T15:28:14;5.36;91.86
65573;SHT30;52214;50.940;13.996;2023-02-22T15:30:41;5.35;91.89
65573;SHT30;52214;50.940;13.996;2023-02-22T15:33:17;5.35;91.88
65573;SHT30;52214;50.940;13.996;2023-02-22T15:35:56;5.34;91.94
65573;SHT30;52214;50.940;13.996;2023-02-22T15:38:28;5.34;91.90
65573;SHT30;52214;50.940;13.996;2023-02-22T15:41:22;5.36;91.92
65573;SHT30;52214;50.940;13.996;2023-02-22T15:44:04;5.35;91.91
65573;SHT30;52214;50.940;13.996;2023-02-22T15:46:30;5.34;91.95
65573;SHT30;52214;50.940;13.996;2023-02-22T15:49:17;5.36;91.93
65573;SHT30;52214;50.940;13.996;2023-02-22T15:54:11;5.35;91.99
65573;SHT30;52214;50.940;13.996;2023-02-22T15:56:46;5.35;91.96
65573;SHT30;52214;50.940;13.996;2023-02-22T15:59:16;5.35;91.99
65573;SHT30;52214;50.940;13.996;2023-02-22T16:01:46;5.38;91.99
65573;SHT30;52214;50.940;13.996;2023-02-22T16:04:21;5.35;92.00
65573;SHT30;52214;50.940;13.996;2023-02-22T16:06:49;5.38;92.03
65573;SHT30;52214;50.940;13.996;2023-02-22T16:11:44;5.35;92.00
65573;SHT30;52214;50.940;13.996;2023-02-22T16:14:38;5.34;92.00
65573;SHT30;52214;50.940;13.996;2023-02-22T16:19:39;5.35;92.02
65573;SHT30;52214;50.940;13.996;2023-02-22T16:22:06;5.36;92.05
65573;SHT30;52214;50.940;13.996;2023-02-22T16:24:38;5.36;92.04
65573;SHT30;52214;50.940;13.996;2023-02-22T16:29:39;5.35;92.01
65573;SHT30;52214;50.940;13.996;2023-02-22T16:32:06;5.38;92.02
65573;SHT30;52214;50.940;13.996;2023-02-22T16:34:32;5.36;92.03
65573;SHT30;52214;50.940;13.996;2023-02-22T16:36:59;5.36;92.03
65573;SHT30;52214;50.940;13.996;2023-02-22T16:39:27;5.34;92.04
65573;SHT30;52214;50.940;13.996;2023-02-22T16:41:56;5.35;92.07
65573;SHT30;52214;50.940;13.996;2023-02-22T16:44:24;5.34;92.07
65573;SHT30;52214;50.940;13.996;2023-02-22T16:46:52;5.36;92.08
65573;SHT30;52214;50.940;13.996;2023-02-22T16:49:18;5.34;92.07
65573;SHT30;52214;50.940;13.996;2023-02-22T16:51:53;5.35;92.08
65573;SHT30;52214;50.940;13.996;2023-02-22T16:54:25;5.35;92.10
65573;SHT30;52214;50.940;13.996;2023-02-22T16:56:54;5.36;92.08
65573;SHT30;52214;50.940;13.996;2023-02-22T16:59:22;5.35;92.07
65573;SHT30;52214;50.940;13.996;2023-02-22T17:01:48;5.36;92.07
65573;SHT30;52214;50.940;13.996;2023-02-22T17:04:17;5.35;92.10
65573;SHT30;52214;50.940;13.996;2023-02-22T17:06:44;5.34;92.04
65573;SHT30;52214;50.940;13.996;2023-02-22T17:09:11;5.34;92.07
65573;SHT30;52214;50.940;13.996;2023-02-22T17:11:38;5.31;92.06
65573;SHT30;52214;50.940;13.996;2023-02-22T17:14:05;5.35;92.03
65573;SHT30;52214;50.940;13.996;2023-02-22T17:16:30;5.34;92.07
65573;SHT30;52214;50.940;13.996;2023-02-22T17:18:56;5.35;92.04
65573;SHT30;52214;50.940;13.996;2023-02-22T17:21:22;5.32;92.05
65573;SHT30;52214;50.940;13.996;2023-02-22T17:23:48;5.35;92.07
65573;SHT30;52214;50.940;13.996;2023-02-22T17:26:15;5.32;92.07
65573;SHT30;52214;50.940;13.996;2023-02-22T17:28:41;5.31;92.05
65573;SHT30;52214;50.940;13.996;2023-02-22T17:31:18;5.34;92.06
65573;SHT30;52214;50.940;13.996;2023-02-22T17:33:45;5.32;92.09
65573;SHT30;52214;50.940;13.996;2023-02-22T17:36:10;5.34;92.05
65573;SHT30;52214;50.940;13.996;2023-02-22T17:38:37;5.31;92.05
65573;SHT30;52214;50.940;13.996;2023-02-22T17:41:06;5.32;92.04
65573;SHT30;52214;50.940;13.996;2023-02-22T17:43:32;5.31;92.03
65573;SHT30;52214;50.940;13.996;2023-02-22T17:45:58;5.31;92.07
65573;SHT30;52214;50.940;13.996;2023-02-22T17:48:25;5.34;92.05
65573;SHT30;52214;50.940;13.996;2023-02-22T17:50:51;5.31;92.05
65573;SHT30;52214;50.940;13.996;2023-02-22T17:53:19;5.29;92.03
65573;SHT30;52214;50.940;13.996;2023-02-22T17:55:47;5.25;92.07
65573;SHT30;52214;50.940;13.996;2023-02-22T17:58:14;5.27;92.09
65573;SHT30;52214;50.940;13.996;2023-02-22T18:00:46;5.27;92.14
65573;SHT30;52214;50.940;13.996;2023-02-22T18:03:15;5.28;92.16